< < Back
Terminal Aerodrome Forecast


Current Version              Previous Versions:   1  2  3  4  5  6  7  8  9  

Terminal Aerodrome Forecast

544
FTUS44 KBMX 180500
TAFTCL
TAF
KTCL 180520Z 1806/1906 11006KT P6SM BKN050 OVC120
     FM180800 08007KT P6SM VCSH OVC040
     FM190000 04004KT P6SM SCT050 BKN250=

Latest METAR

881
SAUS70 KWBC 180800 RRD
MTRTCL
METAR KTCL 180753Z AUTO 07004KT 10SM SCT036 OVC070 16/09 A3021 RMK AO2
SLP229 T01560094


USA.gov is the U.S. government's official web portal to all federal, state and local government web resources and services.